sensor_id;sensor_type;location;lat;lon;timestamp;P1;durP1;ratioP1;P2;durP2;ratioP2
13349;SDS011;6744;53.190;6.576;2022-12-17T00:01:46;26.00;;;19.63;;
13349;SDS011;6744;53.190;6.576;2022-12-17T00:04:30;26.37;;;19.30;;
13349;SDS011;6744;53.190;6.576;2022-12-17T00:07:14;32.70;;;21.93;;
13349;SDS011;6744;53.190;6.576;2022-12-17T00:09:58;28.67;;;21.07;;
13349;SDS011;6744;53.190;6.576;2022-12-17T00:12:42;26.63;;;19.07;;
13349;SDS011;6744;53.190;6.576;2022-12-17T00:15:32;26.47;;;19.70;;
13349;SDS011;6744;53.190;6.576;2022-12-17T00:18:16;24.83;;;19.57;;
13349;SDS011;6744;53.190;6.576;2022-12-17T00:21:00;25.33;;;19.50;;
13349;SDS011;6744;53.190;6.576;2022-12-17T00:23:47;25.70;;;20.17;;
13349;SDS011;6744;53.190;6.576;2022-12-17T00:26:32;26.53;;;19.10;;
13349;SDS011;6744;53.190;6.576;2022-12-17T00:29:16;27.63;;;19.77;;
13349;SDS011;6744;53.190;6.576;2022-12-17T00:32:00;30.77;;;21.63;;
13349;SDS011;6744;53.190;6.576;2022-12-17T00:34:43;23.33;;;18.57;;
13349;SDS011;6744;53.190;6.576;2022-12-17T00:37:27;26.63;;;20.30;;
13349;SDS011;6744;53.190;6.576;2022-12-17T00:40:11;26.43;;;20.10;;
13349;SDS011;6744;53.190;6.576;2022-12-17T00:43:02;24.73;;;19.57;;
13349;SDS011;6744;53.190;6.576;2022-12-17T00:45:50;26.90;;;20.30;;
13349;SDS011;6744;53.190;6.576;2022-12-17T00:48:34;28.57;;;20.57;;
13349;SDS011;6744;53.190;6.576;2022-12-17T00:51:18;27.90;;;20.93;;
13349;SDS011;6744;53.190;6.576;2022-12-17T00:54:03;27.97;;;21.43;;
13349;SDS011;6744;53.190;6.576;2022-12-17T00:56:47;26.03;;;19.87;;
13349;SDS011;6744;53.190;6.576;2022-12-17T00:59:31;25.23;;;19.80;;
13349;SDS011;6744;53.190;6.576;2022-12-17T01:02:15;34.07;;;23.53;;
13349;SDS011;6744;53.190;6.576;2022-12-17T01:04:58;29.17;;;21.70;;
13349;SDS011;6744;53.190;6.576;2022-12-17T01:07:42;26.23;;;20.37;;
13349;SDS011;6744;53.190;6.576;2022-12-17T01:10:26;30.67;;;22.03;;
13349;SDS011;6744;53.190;6.576;2022-12-17T01:13:11;29.57;;;21.13;;
13349;SDS011;6744;53.190;6.576;2022-12-17T01:16:00;32.67;;;23.70;;
13349;SDS011;6744;53.190;6.576;2022-12-17T01:18:48;29.60;;;21.53;;
13349;SDS011;6744;53.190;6.576;2022-12-17T01:21:32;33.77;;;22.67;;
13349;SDS011;6744;53.190;6.576;2022-12-17T01:24:16;32.23;;;22.83;;
13349;SDS011;6744;53.190;6.576;2022-12-17T01:27:00;31.53;;;22.17;;
13349;SDS011;6744;53.190;6.576;2022-12-17T01:29:44;39.33;;;24.03;;
13349;SDS011;6744;53.190;6.576;2022-12-17T01:32:28;33.27;;;23.23;;
13349;SDS011;6744;53.190;6.576;2022-12-17T01:35:12;31.17;;;22.40;;
13349;SDS011;6744;53.190;6.576;2022-12-17T01:37:56;32.57;;;22.47;;
13349;SDS011;6744;53.190;6.576;2022-12-17T01:40:40;34.60;;;24.33;;
13349;SDS011;6744;53.190;6.576;2022-12-17T01:43:33;46.37;;;28.23;;
13349;SDS011;6744;53.190;6.576;2022-12-17T01:46:19;38.27;;;24.03;;
13349;SDS011;6744;53.190;6.576;2022-12-17T01:49:04;34.00;;;22.63;;
13349;SDS011;6744;53.190;6.576;2022-12-17T01:51:48;37.23;;;24.73;;
13349;SDS011;6744;53.190;6.576;2022-12-17T01:54:35;37.00;;;23.73;;
13349;SDS011;6744;53.190;6.576;2022-12-17T01:57:20;41.00;;;25.83;;
13349;SDS011;6744;53.190;6.576;2022-12-17T02:00:05;41.43;;;24.90;;
13349;SDS011;6744;53.190;6.576;2022-12-17T02:02:52;59.77;;;31.40;;
13349;SDS011;6744;53.190;6.576;2022-12-17T02:12:06;41.50;;;24.17;;
13349;SDS011;6744;53.190;6.576;2022-12-17T02:15:08;45.33;;;27.47;;
13349;SDS011;6744;53.190;6.576;2022-12-17T02:17:57;45.07;;;26.80;;
13349;SDS011;6744;53.190;6.576;2022-12-17T02:20:49;46.00;;;27.37;;
13349;SDS011;6744;53.190;6.576;2022-12-17T02:26:48;42.80;;;25.70;;
13349;SDS011;6744;53.190;6.576;2022-12-17T02:29:36;42.33;;;26.20;;
13349;SDS011;6744;53.190;6.576;2022-12-17T02:32:22;47.20;;;28.73;;
13349;SDS011;6744;53.190;6.576;2022-12-17T02:35:22;41.33;;;26.20;;
13349;SDS011;6744;53.190;6.576;2022-12-17T02:38:25;43.37;;;26.17;;
13349;SDS011;6744;53.190;6.576;2022-12-17T02:41:21;45.03;;;26.70;;
13349;SDS011;6744;53.190;6.576;2022-12-17T02:44:09;41.50;;;25.47;;
13349;SDS011;6744;53.190;6.576;2022-12-17T02:46:54;45.10;;;26.83;;
13349;SDS011;6744;53.190;6.576;2022-12-17T02:49:38;38.20;;;25.43;;
13349;SDS011;6744;53.190;6.576;2022-12-17T02:52:23;37.23;;;24.30;;
13349;SDS011;6744;53.190;6.576;2022-12-17T02:55:07;36.53;;;24.60;;
13349;SDS011;6744;53.190;6.576;2022-12-17T02:57:51;36.07;;;23.87;;
13349;SDS011;6744;53.190;6.576;2022-12-17T03:00:35;38.30;;;25.17;;
13349;SDS011;6744;53.190;6.576;2022-12-17T03:03:19;35.97;;;24.63;;
13349;SDS011;6744;53.190;6.576;2022-12-17T03:06:07;36.93;;;25.37;;
13349;SDS011;6744;53.190;6.576;2022-12-17T03:08:51;39.80;;;24.70;;
13349;SDS011;6744;53.190;6.576;2022-12-17T03:11:35;35.97;;;23.73;;
13349;SDS011;6744;53.190;6.576;2022-12-17T03:14:19;34.60;;;22.93;;
13349;SDS011;6744;53.190;6.576;2022-12-17T03:17:03;33.33;;;23.87;;
13349;SDS011;6744;53.190;6.576;2022-12-17T03:19:46;34.87;;;23.57;;
13349;SDS011;6744;53.190;6.576;2022-12-17T03:22:30;34.30;;;24.13;;
13349;SDS011;6744;53.190;6.576;2022-12-17T03:25:14;38.00;;;25.47;;
13349;SDS011;6744;53.190;6.576;2022-12-17T03:28:05;33.37;;;24.00;;
13349;SDS011;6744;53.190;6.576;2022-12-17T03:30:50;40.43;;;26.57;;
13349;SDS011;6744;53.190;6.576;2022-12-17T03:33:34;36.13;;;25.13;;
13349;SDS011;6744;53.190;6.576;2022-12-17T03:36:18;35.70;;;24.13;;
13349;SDS011;6744;53.190;6.576;2022-12-17T03:39:02;35.93;;;25.73;;
13349;SDS011;6744;53.190;6.576;2022-12-17T03:41:46;32.47;;;23.50;;
13349;SDS011;6744;53.190;6.576;2022-12-17T03:44:30;33.23;;;24.57;;
13349;SDS011;6744;53.190;6.576;2022-12-17T03:47:14;33.53;;;24.27;;
13349;SDS011;6744;53.190;6.576;2022-12-17T03:49:58;33.97;;;24.47;;
13349;SDS011;6744;53.190;6.576;2022-12-17T03:52:42;30.27;;;23.13;;
13349;SDS011;6744;53.190;6.576;2022-12-17T03:55:26;34.33;;;23.80;;
13349;SDS011;6744;53.190;6.576;2022-12-17T03:58:10;34.00;;;23.40;;
13349;SDS011;6744;53.190;6.576;2022-12-17T04:00:53;31.67;;;22.80;;
13349;SDS011;6744;53.190;6.576;2022-12-17T04:03:37;34.57;;;24.37;;
13349;SDS011;6744;53.190;6.576;2022-12-17T04:06:21;32.93;;;23.17;;
13349;SDS011;6744;53.190;6.576;2022-12-17T04:09:05;32.83;;;23.73;;
13349;SDS011;6744;53.190;6.576;2022-12-17T04:11:49;33.77;;;23.37;;
13349;SDS011;6744;53.190;6.576;2022-12-17T04:14:33;33.83;;;23.20;;
13349;SDS011;6744;53.190;6.576;2022-12-17T04:17:17;31.67;;;22.53;;
13349;SDS011;6744;53.190;6.576;2022-12-17T04:20:01;32.93;;;23.37;;
13349;SDS011;6744;53.190;6.576;2022-12-17T04:22:46;34.43;;;23.87;;
13349;SDS011;6744;53.190;6.576;2022-12-17T04:25:30;34.27;;;24.07;;
13349;SDS011;6744;53.190;6.576;2022-12-17T04:28:14;34.90;;;24.97;;
13349;SDS011;6744;53.190;6.576;2022-12-17T04:30:58;35.10;;;23.93;;
13349;SDS011;6744;53.190;6.576;2022-12-17T04:33:41;33.10;;;23.37;;
13349;SDS011;6744;53.190;6.576;2022-12-17T04:36:25;33.73;;;24.10;;
13349;SDS011;6744;53.190;6.576;2022-12-17T04:39:09;34.43;;;24.80;;
13349;SDS011;6744;53.190;6.576;2022-12-17T04:41:53;32.47;;;24.27;;
13349;SDS011;6744;53.190;6.576;2022-12-17T04:44:37;36.40;;;25.03;;
13349;SDS011;6744;53.190;6.576;2022-12-17T04:47:21;36.27;;;25.03;;
13349;SDS011;6744;53.190;6.576;2022-12-17T04:50:05;32.77;;;24.13;;
13349;SDS011;6744;53.190;6.576;2022-12-17T04:52:50;34.80;;;24.17;;
13349;SDS011;6744;53.190;6.576;2022-12-17T04:55:33;34.70;;;25.17;;
13349;SDS011;6744;53.190;6.576;2022-12-17T04:58:17;37.87;;;26.83;;
13349;SDS011;6744;53.190;6.576;2022-12-17T05:01:01;35.97;;;25.70;;
13349;SDS011;6744;53.190;6.576;2022-12-17T05:03:45;41.60;;;27.83;;
13349;SDS011;6744;53.190;6.576;2022-12-17T05:06:29;35.50;;;24.23;;
13349;SDS011;6744;53.190;6.576;2022-12-17T05:09:13;35.00;;;25.37;;
13349;SDS011;6744;53.190;6.576;2022-12-17T05:11:57;38.33;;;25.47;;
13349;SDS011;6744;53.190;6.576;2022-12-17T05:14:41;36.47;;;25.47;;
13349;SDS011;6744;53.190;6.576;2022-12-17T05:17:25;41.37;;;27.77;;
13349;SDS011;6744;53.190;6.576;2022-12-17T05:20:09;38.83;;;25.80;;
13349;SDS011;6744;53.190;6.576;2022-12-17T05:23:07;35.73;;;25.43;;
13349;SDS011;6744;53.190;6.576;2022-12-17T05:25:56;41.00;;;27.73;;
13349;SDS011;6744;53.190;6.576;2022-12-17T05:28:49;43.43;;;27.87;;
13349;SDS011;6744;53.190;6.576;2022-12-17T05:31:33;43.17;;;26.77;;
13349;SDS011;6744;53.190;6.576;2022-12-17T05:34:17;39.87;;;27.23;;
13349;SDS011;6744;53.190;6.576;2022-12-17T05:37:01;37.20;;;25.20;;
13349;SDS011;6744;53.190;6.576;2022-12-17T05:39:45;37.63;;;26.60;;
13349;SDS011;6744;53.190;6.576;2022-12-17T05:42:29;37.43;;;26.13;;
13349;SDS011;6744;53.190;6.576;2022-12-17T05:45:13;36.47;;;26.13;;
13349;SDS011;6744;53.190;6.576;2022-12-17T05:47:57;37.97;;;25.63;;
13349;SDS011;6744;53.190;6.576;2022-12-17T05:50:41;39.57;;;26.87;;
13349;SDS011;6744;53.190;6.576;2022-12-17T05:53:24;39.03;;;26.13;;
13349;SDS011;6744;53.190;6.576;2022-12-17T05:56:09;38.30;;;26.50;;
13349;SDS011;6744;53.190;6.576;2022-12-17T05:58:53;36.17;;;26.00;;
13349;SDS011;6744;53.190;6.576;2022-12-17T06:01:37;39.93;;;27.30;;
13349;SDS011;6744;53.190;6.576;2022-12-17T06:04:20;38.10;;;25.90;;
13349;SDS011;6744;53.190;6.576;2022-12-17T06:07:04;41.97;;;28.27;;
13349;SDS011;6744;53.190;6.576;2022-12-17T06:09:48;37.47;;;25.63;;
13349;SDS011;6744;53.190;6.576;2022-12-17T06:12:32;39.43;;;26.43;;
13349;SDS011;6744;53.190;6.576;2022-12-17T06:15:16;38.40;;;25.83;;
13349;SDS011;6744;53.190;6.576;2022-12-17T06:18:00;36.37;;;25.87;;
13349;SDS011;6744;53.190;6.576;2022-12-17T06:20:44;39.00;;;26.87;;
13349;SDS011;6744;53.190;6.576;2022-12-17T06:23:28;34.40;;;25.17;;
13349;SDS011;6744;53.190;6.576;2022-12-17T06:26:12;34.30;;;24.13;;
13349;SDS011;6744;53.190;6.576;2022-12-17T06:28:56;32.87;;;24.60;;
13349;SDS011;6744;53.190;6.576;2022-12-17T06:31:40;34.50;;;25.57;;
13349;SDS011;6744;53.190;6.576;2022-12-17T06:34:24;33.03;;;24.63;;
13349;SDS011;6744;53.190;6.576;2022-12-17T06:37:15;35.77;;;25.43;;
13349;SDS011;6744;53.190;6.576;2022-12-17T06:39:59;35.73;;;24.93;;
13349;SDS011;6744;53.190;6.576;2022-12-17T06:42:55;34.57;;;25.40;;
13349;SDS011;6744;53.190;6.576;2022-12-17T06:45:39;37.50;;;25.90;;
13349;SDS011;6744;53.190;6.576;2022-12-17T06:48:23;38.40;;;26.67;;
13349;SDS011;6744;53.190;6.576;2022-12-17T06:51:07;36.50;;;25.60;;
13349;SDS011;6744;53.190;6.576;2022-12-17T06:53:51;34.43;;;25.57;;
13349;SDS011;6744;53.190;6.576;2022-12-17T06:56:35;42.60;;;27.00;;
13349;SDS011;6744;53.190;6.576;2022-12-17T06:59:19;38.00;;;25.47;;
13349;SDS011;6744;53.190;6.576;2022-12-17T07:02:03;33.00;;;25.03;;
13349;SDS011;6744;53.190;6.576;2022-12-17T07:04:47;36.47;;;25.67;;
13349;SDS011;6744;53.190;6.576;2022-12-17T07:07:31;36.93;;;26.80;;
13349;SDS011;6744;53.190;6.576;2022-12-17T07:10:15;34.40;;;25.60;;
13349;SDS011;6744;53.190;6.576;2022-12-17T07:13:05;37.10;;;25.67;;
13349;SDS011;6744;53.190;6.576;2022-12-17T07:15:50;38.53;;;25.67;;
13349;SDS011;6744;53.190;6.576;2022-12-17T07:18:48;37.23;;;25.03;;
13349;SDS011;6744;53.190;6.576;2022-12-17T07:21:32;36.70;;;26.00;;
13349;SDS011;6744;53.190;6.576;2022-12-17T07:24:15;33.97;;;24.77;;
13349;SDS011;6744;53.190;6.576;2022-12-17T07:26:59;34.60;;;25.80;;
13349;SDS011;6744;53.190;6.576;2022-12-17T07:29:43;35.00;;;26.17;;
13349;SDS011;6744;53.190;6.576;2022-12-17T07:32:27;40.77;;;28.20;;
13349;SDS011;6744;53.190;6.576;2022-12-17T07:35:11;37.77;;;27.67;;
13349;SDS011;6744;53.190;6.576;2022-12-17T07:37:59;39.67;;;27.53;;
13349;SDS011;6744;53.190;6.576;2022-12-17T07:40:44;40.83;;;28.23;;
13349;SDS011;6744;53.190;6.576;2022-12-17T07:43:28;43.10;;;29.30;;
13349;SDS011;6744;53.190;6.576;2022-12-17T07:46:12;40.97;;;27.87;;
13349;SDS011;6744;53.190;6.576;2022-12-17T07:48:55;42.10;;;29.53;;
13349;SDS011;6744;53.190;6.576;2022-12-17T07:51:39;41.23;;;28.60;;
13349;SDS011;6744;53.190;6.576;2022-12-17T07:54:43;42.23;;;28.57;;
13349;SDS011;6744;53.190;6.576;2022-12-17T07:57:27;37.93;;;27.50;;
13349;SDS011;6744;53.190;6.576;2022-12-17T08:00:11;40.47;;;27.07;;
13349;SDS011;6744;53.190;6.576;2022-12-17T08:02:56;44.73;;;29.93;;
13349;SDS011;6744;53.190;6.576;2022-12-17T08:05:41;44.87;;;29.47;;
13349;SDS011;6744;53.190;6.576;2022-12-17T08:08:25;43.83;;;29.10;;
13349;SDS011;6744;53.190;6.576;2022-12-17T08:11:08;40.20;;;26.97;;
13349;SDS011;6744;53.190;6.576;2022-12-17T08:13:52;38.87;;;28.20;;
13349;SDS011;6744;53.190;6.576;2022-12-17T08:16:36;43.50;;;28.73;;
13349;SDS011;6744;53.190;6.576;2022-12-17T08:19:20;40.23;;;27.53;;
13349;SDS011;6744;53.190;6.576;2022-12-17T08:22:04;38.07;;;25.97;;
13349;SDS011;6744;53.190;6.576;2022-12-17T08:24:48;41.17;;;26.50;;
13349;SDS011;6744;53.190;6.576;2022-12-17T08:27:32;46.53;;;29.33;;
13349;SDS011;6744;53.190;6.576;2022-12-17T08:30:16;41.97;;;27.50;;
13349;SDS011;6744;53.190;6.576;2022-12-17T08:33:01;40.17;;;26.80;;
13349;SDS011;6744;53.190;6.576;2022-12-17T08:35:50;42.10;;;27.23;;
13349;SDS011;6744;53.190;6.576;2022-12-17T08:38:48;42.80;;;26.97;;
13349;SDS011;6744;53.190;6.576;2022-12-17T08:41:32;40.33;;;26.40;;
13349;SDS011;6744;53.190;6.576;2022-12-17T08:44:16;42.97;;;27.03;;
13349;SDS011;6744;53.190;6.576;2022-12-17T08:47:00;41.03;;;26.90;;
13349;SDS011;6744;53.190;6.576;2022-12-17T08:49:43;44.57;;;27.10;;
13349;SDS011;6744;53.190;6.576;2022-12-17T08:52:27;45.60;;;28.87;;
13349;SDS011;6744;53.190;6.576;2022-12-17T08:55:11;42.73;;;27.23;;
13349;SDS011;6744;53.190;6.576;2022-12-17T08:57:56;42.47;;;26.47;;
13349;SDS011;6744;53.190;6.576;2022-12-17T09:00:40;42.37;;;27.23;;
13349;SDS011;6744;53.190;6.576;2022-12-17T09:03:24;43.57;;;26.77;;
13349;SDS011;6744;53.190;6.576;2022-12-17T09:06:08;40.63;;;26.47;;
13349;SDS011;6744;53.190;6.576;2022-12-17T09:08:52;41.50;;;26.83;;
13349;SDS011;6744;53.190;6.576;2022-12-17T09:11:36;39.90;;;26.20;;
13349;SDS011;6744;53.190;6.576;2022-12-17T09:14:20;42.07;;;27.10;;
13349;SDS011;6744;53.190;6.576;2022-12-17T09:17:04;41.77;;;27.77;;
13349;SDS011;6744;53.190;6.576;2022-12-17T09:19:48;43.83;;;27.07;;
13349;SDS011;6744;53.190;6.576;2022-12-17T09:22:32;44.77;;;27.27;;
13349;SDS011;6744;53.190;6.576;2022-12-17T09:25:16;44.30;;;27.47;;
13349;SDS011;6744;53.190;6.576;2022-12-17T09:28:00;41.33;;;26.93;;
13349;SDS011;6744;53.190;6.576;2022-12-17T09:30:44;43.63;;;27.03;;
13349;SDS011;6744;53.190;6.576;2022-12-17T09:33:28;40.03;;;25.87;;
13349;SDS011;6744;53.190;6.576;2022-12-17T09:36:12;45.37;;;27.47;;
13349;SDS011;6744;53.190;6.576;2022-12-17T09:38:56;46.53;;;28.03;;
13349;SDS011;6744;53.190;6.576;2022-12-17T09:41:54;42.33;;;26.70;;
13349;SDS011;6744;53.190;6.576;2022-12-17T09:48:06;48.57;;;27.40;;
13349;SDS011;6744;53.190;6.576;2022-12-17T09:50:56;44.53;;;27.93;;
13349;SDS011;6744;53.190;6.576;2022-12-17T09:53:44;45.80;;;26.30;;
13349;SDS011;6744;53.190;6.576;2022-12-17T09:56:29;44.53;;;26.70;;
13349;SDS011;6744;53.190;6.576;2022-12-17T09:59:22;46.13;;;26.93;;
13349;SDS011;6744;53.190;6.576;2022-12-17T10:02:13;47.33;;;27.03;;
13349;SDS011;6744;53.190;6.576;2022-12-17T10:04:59;45.60;;;27.17;;
13349;SDS011;6744;53.190;6.576;2022-12-17T10:07:44;43.37;;;26.60;;
13349;SDS011;6744;53.190;6.576;2022-12-17T10:10:30;45.23;;;26.90;;
13349;SDS011;6744;53.190;6.576;2022-12-17T10:13:16;42.50;;;26.40;;
13349;SDS011;6744;53.190;6.576;2022-12-17T10:16:01;42.83;;;26.13;;
13349;SDS011;6744;53.190;6.576;2022-12-17T10:18:59;43.97;;;27.50;;
13349;SDS011;6744;53.190;6.576;2022-12-17T10:21:43;48.10;;;28.40;;
13349;SDS011;6744;53.190;6.576;2022-12-17T10:24:27;40.97;;;26.10;;
13349;SDS011;6744;53.190;6.576;2022-12-17T10:27:14;43.47;;;26.50;;
13349;SDS011;6744;53.190;6.576;2022-12-17T10:30:17;42.40;;;26.30;;
13349;SDS011;6744;53.190;6.576;2022-12-17T10:33:05;42.03;;;25.10;;
13349;SDS011;6744;53.190;6.576;2022-12-17T10:35:49;42.40;;;25.97;;
13349;SDS011;6744;53.190;6.576;2022-12-17T10:38:33;42.57;;;26.07;;
13349;SDS011;6744;53.190;6.576;2022-12-17T10:44:44;40.03;;;25.50;;
13349;SDS011;6744;53.190;6.576;2022-12-17T10:47:25;45.83;;;27.13;;
13349;SDS011;6744;53.190;6.576;2022-12-17T10:50:17;41.07;;;26.23;;
13349;SDS011;6744;53.190;6.576;2022-12-17T10:53:03;42.73;;;26.70;;
13349;SDS011;6744;53.190;6.576;2022-12-17T10:55:58;47.27;;;29.47;;
13349;SDS011;6744;53.190;6.576;2022-12-17T10:58:43;48.60;;;30.10;;
13349;SDS011;6744;53.190;6.576;2022-12-17T11:01:28;45.80;;;29.20;;
13349;SDS011;6744;53.190;6.576;2022-12-17T11:04:23;46.17;;;28.93;;
13349;SDS011;6744;53.190;6.576;2022-12-17T11:07:22;47.30;;;29.27;;
13349;SDS011;6744;53.190;6.576;2022-12-17T11:10:13;46.93;;;28.87;;
13349;SDS011;6744;53.190;6.576;2022-12-17T11:13:00;46.80;;;29.83;;
13349;SDS011;6744;53.190;6.576;2022-12-17T11:15:51;45.97;;;29.57;;
13349;SDS011;6744;53.190;6.576;2022-12-17T11:21:40;41.83;;;27.30;;
13349;SDS011;6744;53.190;6.576;2022-12-17T11:24:38;44.47;;;28.10;;
13349;SDS011;6744;53.190;6.576;2022-12-17T11:27:26;48.70;;;30.47;;
13349;SDS011;6744;53.190;6.576;2022-12-17T11:30:13;44.00;;;28.83;;
13349;SDS011;6744;53.190;6.576;2022-12-17T11:33:10;44.40;;;30.10;;
13349;SDS011;6744;53.190;6.576;2022-12-17T11:35:59;45.67;;;30.10;;
13349;SDS011;6744;53.190;6.576;2022-12-17T11:38:52;42.77;;;29.07;;
13349;SDS011;6744;53.190;6.576;2022-12-17T11:41:44;44.77;;;30.10;;
13349;SDS011;6744;53.190;6.576;2022-12-17T11:47:47;44.47;;;29.53;;
13349;SDS011;6744;53.190;6.576;2022-12-17T11:50:53;45.07;;;30.97;;
13349;SDS011;6744;53.190;6.576;2022-12-17T11:53:45;44.83;;;29.57;;
13349;SDS011;6744;53.190;6.576;2022-12-17T11:56:39;43.17;;;29.50;;
13349;SDS011;6744;53.190;6.576;2022-12-17T12:02:27;42.53;;;28.30;;
13349;SDS011;6744;53.190;6.576;2022-12-17T12:11:10;43.63;;;30.17;;
13349;SDS011;6744;53.190;6.576;2022-12-17T12:26:55;42.73;;;29.37;;
13349;SDS011;6744;53.190;6.576;2022-12-17T12:32:29;42.37;;;29.87;;
13349;SDS011;6744;53.190;6.576;2022-12-17T12:35:17;42.37;;;29.87;;
13349;SDS011;6744;53.190;6.576;2022-12-17T12:38:03;44.93;;;29.90;;
13349;SDS011;6744;53.190;6.576;2022-12-17T12:40:52;45.17;;;31.20;;
13349;SDS011;6744;53.190;6.576;2022-12-17T12:43:38;43.90;;;30.13;;
13349;SDS011;6744;53.190;6.576;2022-12-17T12:46:35;44.50;;;28.63;;
13349;SDS011;6744;53.190;6.576;2022-12-17T12:49:30;43.47;;;30.30;;
13349;SDS011;6744;53.190;6.576;2022-12-17T12:52:19;41.43;;;27.80;;
13349;SDS011;6744;53.190;6.576;2022-12-17T12:55:05;38.90;;;28.87;;
13349;SDS011;6744;53.190;6.576;2022-12-17T12:57:59;42.07;;;29.20;;
13349;SDS011;6744;53.190;6.576;2022-12-17T13:03:32;40.20;;;28.50;;
13349;SDS011;6744;53.190;6.576;2022-12-17T13:11:48;41.50;;;29.00;;
13349;SDS011;6744;53.190;6.576;2022-12-17T13:14:22;38.97;;;27.90;;
13349;SDS011;6744;53.190;6.576;2022-12-17T13:16:57;44.83;;;29.27;;
13349;SDS011;6744;53.190;6.576;2022-12-17T13:19:39;42.90;;;29.17;;
13349;SDS011;6744;53.190;6.576;2022-12-17T13:24:34;40.93;;;29.27;;
13349;SDS011;6744;53.190;6.576;2022-12-17T13:27:00;43.70;;;29.73;;
13349;SDS011;6744;53.190;6.576;2022-12-17T13:29:32;40.80;;;29.83;;
13349;SDS011;6744;53.190;6.576;2022-12-17T13:34:50;43.00;;;29.93;;
13349;SDS011;6744;53.190;6.576;2022-12-17T13:37:42;41.10;;;28.70;;
13349;SDS011;6744;53.190;6.576;2022-12-17T13:42:59;45.37;;;28.70;;
13349;SDS011;6744;53.190;6.576;2022-12-17T13:45:25;41.53;;;29.93;;
13349;SDS011;6744;53.190;6.576;2022-12-17T13:47:55;40.80;;;28.10;;
13349;SDS011;6744;53.190;6.576;2022-12-17T13:52:48;44.40;;;30.87;;
13349;SDS011;6744;53.190;6.576;2022-12-17T13:55:18;43.00;;;31.00;;
13349;SDS011;6744;53.190;6.576;2022-12-17T13:57:46;42.07;;;29.97;;
13349;SDS011;6744;53.190;6.576;2022-12-17T14:00:28;44.23;;;31.10;;
13349;SDS011;6744;53.190;6.576;2022-12-17T14:02:54;42.10;;;29.07;;
13349;SDS011;6744;53.190;6.576;2022-12-17T14:05:25;43.13;;;29.13;;
13349;SDS011;6744;53.190;6.576;2022-12-17T14:07:59;41.40;;;29.10;;
13349;SDS011;6744;53.190;6.576;2022-12-17T14:10:26;39.50;;;28.93;;
13349;SDS011;6744;53.190;6.576;2022-12-17T14:12:58;42.57;;;29.70;;
13349;SDS011;6744;53.190;6.576;2022-12-17T14:15:34;42.93;;;30.23;;
13349;SDS011;6744;53.190;6.576;2022-12-17T14:18:00;46.30;;;31.73;;
13349;SDS011;6744;53.190;6.576;2022-12-17T14:20:28;43.60;;;30.17;;
13349;SDS011;6744;53.190;6.576;2022-12-17T14:23:02;41.30;;;29.53;;
13349;SDS011;6744;53.190;6.576;2022-12-17T14:25:35;41.87;;;28.57;;
13349;SDS011;6744;53.190;6.576;2022-12-17T14:30:47;46.70;;;30.90;;
13349;SDS011;6744;53.190;6.576;2022-12-17T14:33:23;42.57;;;29.67;;
13349;SDS011;6744;53.190;6.576;2022-12-17T14:35:52;43.47;;;29.60;;
13349;SDS011;6744;53.190;6.576;2022-12-17T14:38:18;42.73;;;29.63;;
13349;SDS011;6744;53.190;6.576;2022-12-17T14:40:44;43.40;;;30.00;;
13349;SDS011;6744;53.190;6.576;2022-12-17T14:43:09;43.00;;;30.17;;
13349;SDS011;6744;53.190;6.576;2022-12-17T14:45:37;43.70;;;29.80;;
13349;SDS011;6744;53.190;6.576;2022-12-17T14:48:23;42.67;;;29.27;;
13349;SDS011;6744;53.190;6.576;2022-12-17T14:51:19;44.13;;;29.73;;
13349;SDS011;6744;53.190;6.576;2022-12-17T14:53:49;44.80;;;30.80;;
13349;SDS011;6744;53.190;6.576;2022-12-17T14:56:21;45.17;;;29.97;;
13349;SDS011;6744;53.190;6.576;2022-12-17T14:58:47;48.90;;;32.33;;
13349;SDS011;6744;53.190;6.576;2022-12-17T15:01:12;41.63;;;28.90;;
13349;SDS011;6744;53.190;6.576;2022-12-17T15:03:39;43.83;;;30.03;;
13349;SDS011;6744;53.190;6.576;2022-12-17T15:06:07;47.13;;;31.00;;
13349;SDS011;6744;53.190;6.576;2022-12-17T15:08:41;48.87;;;31.97;;
13349;SDS011;6744;53.190;6.576;2022-12-17T15:11:08;48.73;;;30.87;;
13349;SDS011;6744;53.190;6.576;2022-12-17T15:13:35;45.77;;;30.60;;
13349;SDS011;6744;53.190;6.576;2022-12-17T15:16:01;42.50;;;29.40;;
13349;SDS011;6744;53.190;6.576;2022-12-17T15:18:26;47.33;;;29.70;;
13349;SDS011;6744;53.190;6.576;2022-12-17T15:20:51;50.13;;;31.23;;
13349;SDS011;6744;53.190;6.576;2022-12-17T15:23:18;44.83;;;30.17;;
13349;SDS011;6744;53.190;6.576;2022-12-17T15:25:44;46.90;;;30.80;;
13349;SDS011;6744;53.190;6.576;2022-12-17T15:28:11;46.67;;;29.70;;
13349;SDS011;6744;53.190;6.576;2022-12-17T15:30:36;46.60;;;29.77;;
13349;SDS011;6744;53.190;6.576;2022-12-17T15:33:03;44.53;;;28.80;;
13349;SDS011;6744;53.190;6.576;2022-12-17T15:35:30;43.50;;;29.07;;
13349;SDS011;6744;53.190;6.576;2022-12-17T15:37:55;46.80;;;30.40;;
13349;SDS011;6744;53.190;6.576;2022-12-17T15:40:21;44.17;;;29.40;;
13349;SDS011;6744;53.190;6.576;2022-12-17T15:42:46;47.13;;;31.00;;
13349;SDS011;6744;53.190;6.576;2022-12-17T15:45:30;46.53;;;29.23;;
13349;SDS011;6744;53.190;6.576;2022-12-17T15:47:56;46.57;;;30.07;;
13349;SDS011;6744;53.190;6.576;2022-12-17T15:50:21;46.67;;;30.27;;
13349;SDS011;6744;53.190;6.576;2022-12-17T15:52:47;45.87;;;28.83;;
13349;SDS011;6744;53.190;6.576;2022-12-17T15:55:12;48.23;;;29.67;;
13349;SDS011;6744;53.190;6.576;2022-12-17T15:57:38;48.00;;;28.87;;
13349;SDS011;6744;53.190;6.576;2022-12-17T16:00:04;49.23;;;30.63;;
13349;SDS011;6744;53.190;6.576;2022-12-17T16:02:29;45.93;;;30.47;;
13349;SDS011;6744;53.190;6.576;2022-12-17T16:04:55;45.87;;;29.03;;
13349;SDS011;6744;53.190;6.576;2022-12-17T16:07:20;46.60;;;29.20;;
13349;SDS011;6744;53.190;6.576;2022-12-17T16:09:45;49.97;;;30.63;;
13349;SDS011;6744;53.190;6.576;2022-12-17T16:12:11;52.87;;;30.87;;
13349;SDS011;6744;53.190;6.576;2022-12-17T16:14:36;50.33;;;29.63;;
13349;SDS011;6744;53.190;6.576;2022-12-17T16:17:01;51.57;;;30.43;;
13349;SDS011;6744;53.190;6.576;2022-12-17T16:19:27;47.70;;;28.47;;
13349;SDS011;6744;53.190;6.576;2022-12-17T16:21:52;45.20;;;28.10;;
13349;SDS011;6744;53.190;6.576;2022-12-17T16:24:17;43.07;;;27.53;;
13349;SDS011;6744;53.190;6.576;2022-12-17T16:26:43;49.87;;;29.33;;
13349;SDS011;6744;53.190;6.576;2022-12-17T16:29:08;47.43;;;28.17;;
13349;SDS011;6744;53.190;6.576;2022-12-17T16:31:34;48.83;;;28.00;;
13349;SDS011;6744;53.190;6.576;2022-12-17T16:33:59;50.07;;;28.87;;
13349;SDS011;6744;53.190;6.576;2022-12-17T16:36:24;48.90;;;28.63;;
13349;SDS011;6744;53.190;6.576;2022-12-17T16:38:51;46.23;;;27.57;;
13349;SDS011;6744;53.190;6.576;2022-12-17T16:41:18;52.67;;;28.73;;
13349;SDS011;6744;53.190;6.576;2022-12-17T16:43:44;49.77;;;27.70;;
13349;SDS011;6744;53.190;6.576;2022-12-17T16:48:53;46.47;;;27.27;;
13349;SDS011;6744;53.190;6.576;2022-12-17T16:51:20;45.67;;;27.07;;
13349;SDS011;6744;53.190;6.576;2022-12-17T16:53:47;46.57;;;26.30;;
13349;SDS011;6744;53.190;6.576;2022-12-17T16:56:16;48.03;;;27.27;;
13349;SDS011;6744;53.190;6.576;2022-12-17T16:58:42;46.10;;;26.80;;
13349;SDS011;6744;53.190;6.576;2022-12-17T17:01:08;45.30;;;26.37;;
13349;SDS011;6744;53.190;6.576;2022-12-17T17:03:36;47.70;;;27.60;;
13349;SDS011;6744;53.190;6.576;2022-12-17T17:06:03;49.53;;;28.07;;
13349;SDS011;6744;53.190;6.576;2022-12-17T17:08:28;51.97;;;28.33;;
13349;SDS011;6744;53.190;6.576;2022-12-17T17:10:54;49.60;;;28.23;;